createdAt,value
2023-10-31T00:01:53.255Z,99.99
2023-10-31T00:02:53.336Z,99.99
2023-10-31T00:03:53.173Z,99.99
2023-10-31T00:04:54.449Z,99.99
2023-10-31T00:05:55.866Z,99.99
2023-10-31T00:06:54.822Z,99.99
2023-10-31T00:07:54.283Z,99.99
2023-10-31T00:08:54.256Z,99.99
2023-10-31T00:09:54.281Z,99.99
2023-10-31T00:10:54.299Z,99.99
2023-10-31T00:11:54.830Z,99.99
2023-10-31T00:12:54.214Z,99.99
2023-10-31T00:13:55.472Z,99.99
2023-10-31T00:14:54.190Z,99.99
2023-10-31T00:15:55.491Z,99.99
2023-10-31T00:16:54.217Z,99.99
2023-10-31T00:17:54.246Z,99.99
2023-10-31T00:18:54.234Z,99.99
2023-10-31T00:19:54.276Z,99.99
2023-10-31T00:20:54.260Z,99.99
2023-10-31T00:21:54.895Z,99.99
2023-10-31T00:22:54.934Z,99.99
2023-10-31T00:23:54.151Z,99.99
2023-10-31T00:24:55.177Z,99.99
2023-10-31T00:25:56.187Z,99.99
2023-10-31T00:26:54.303Z,99.99
2023-10-31T00:27:54.137Z,99.99
2023-10-31T00:28:54.147Z,99.99
2023-10-31T00:29:54.076Z,99.99
2023-10-31T00:30:54.099Z,99.99
2023-10-31T00:31:54.148Z,99.99
2023-10-31T00:32:54.935Z,99.99
2023-10-31T00:33:54.995Z,99.99
2023-10-31T00:34:54.902Z,99.99
2023-10-31T00:35:54.146Z,99.99
2023-10-31T00:36:54.873Z,99.99
2023-10-31T00:37:54.104Z,99.99
2023-10-31T00:38:54.007Z,99.99
2023-10-31T00:39:53.996Z,99.99
2023-10-31T00:40:54.088Z,99.99
2023-10-31T00:41:54.073Z,99.99
2023-10-31T00:42:54.705Z,99.99
2023-10-31T00:43:54.001Z,99.99
2023-10-31T00:44:53.999Z,99.99
2023-10-31T00:45:53.973Z,99.99
2023-10-31T00:46:54.042Z,99.99
2023-10-31T00:47:54.007Z,99.99
2023-10-31T00:48:53.941Z,99.99
2023-10-31T00:49:54.055Z,99.99
2023-10-31T00:50:54.954Z,99.99
2023-10-31T00:51:53.991Z,99.99
2023-10-31T00:52:53.980Z,99.99
2023-10-31T00:53:53.990Z,99.99
2023-10-31T00:54:54.873Z,99.99
2023-10-31T00:55:54.897Z,99.99
2023-10-31T00:56:53.869Z,99.99
2023-10-31T00:57:53.865Z,99.99
2023-10-31T00:58:53.879Z,99.99
2023-10-31T00:59:54.857Z,99.99
2023-10-31T01:00:53.838Z,99.99
2023-10-31T01:01:53.865Z,99.99
2023-10-31T01:02:53.876Z,99.99
2023-10-31T01:03:53.921Z,99.99
2023-10-31T01:04:54.437Z,99.99
2023-10-31T01:05:53.961Z,99.99
2023-10-31T01:06:53.832Z,99.99
2023-10-31T01:22:49.799Z,99.99
2023-10-31T01:24:23.536Z,99.99
2023-10-31T01:24:50.253Z,99.99
2023-10-31T01:26:26.592Z,99.99
2023-10-31T01:26:50.293Z,99.99
2023-10-31T01:27:50.220Z,99.99
2023-10-31T01:28:50.275Z,99.99
2023-10-31T01:29:52.076Z,99.99
2023-10-31T01:30:50.165Z,99.99
2023-10-31T01:31:59.151Z,99.99
2023-10-31T01:32:54.158Z,99.99
2023-10-31T01:33:50.398Z,99.99
2023-10-31T01:34:50.230Z,99.99
2023-10-31T01:35:50.288Z,99.99
2023-10-31T01:36:50.133Z,99.99
2023-10-31T01:37:50.116Z,99.99
2023-10-31T01:38:50.104Z,99.99
2023-10-31T01:39:50.148Z,99.99
2023-10-31T01:40:50.202Z,99.99
2023-10-31T01:41:50.122Z,99.99
2023-10-31T01:42:51.217Z,99.99
2023-10-31T01:43:52.514Z,99.99
2023-10-31T01:44:50.084Z,99.99
2023-10-31T01:45:50.107Z,99.99
2023-10-31T01:46:50.132Z,99.99
2023-10-31T01:47:51.090Z,99.99
2023-10-31T01:48:50.084Z,99.99
2023-10-31T01:49:50.325Z,99.99
2023-10-31T01:50:50.242Z,99.99
2023-10-31T01:51:50.036Z,99.99
2023-10-31T01:52:53.647Z,99.99
2023-10-31T01:53:50.038Z,99.99
2023-10-31T01:54:50.037Z,99.99
2023-10-31T01:55:50.009Z,99.99
2023-10-31T01:56:49.976Z,99.99
2023-10-31T01:57:49.946Z,99.99
2023-10-31T01:58:49.965Z,99.99
2023-10-31T01:59:49.919Z,99.99
2023-10-31T02:00:50.953Z,99.99
2023-10-31T02:01:50.707Z,99.99
2023-10-31T02:02:51.055Z,99.99
2023-10-31T02:03:50.700Z,99.99
2023-10-31T02:04:49.920Z,99.99
2023-10-31T02:05:49.884Z,99.99
2023-10-31T02:06:49.941Z,99.99
2023-10-31T02:07:49.905Z,99.99
2023-10-31T02:08:51.603Z,99.99
2023-10-31T02:09:49.843Z,99.99
2023-10-31T02:10:50.088Z,99.99
2023-10-31T02:11:49.834Z,99.99
2023-10-31T02:12:49.830Z,99.99
2023-10-31T02:13:49.853Z,99.99
2023-10-31T02:14:49.861Z,99.99
2023-10-31T02:15:50.731Z,99.99
2023-10-31T02:16:49.923Z,99.99
2023-10-31T02:17:49.868Z,99.99
2023-10-31T02:18:49.869Z,99.99
2023-10-31T02:19:49.813Z,99.99
2023-10-31T02:20:50.497Z,99.99
2023-10-31T02:21:50.695Z,99.99
2023-10-31T02:22:49.797Z,99.99
2023-10-31T02:23:49.878Z,99.99
2023-10-31T02:24:49.811Z,99.99
2023-10-31T02:25:49.862Z,99.99
2023-10-31T02:26:49.844Z,99.99
2023-10-31T02:27:49.812Z,99.99
2023-10-31T02:28:49.748Z,99.99
2023-10-31T02:29:49.745Z,99.99
2023-10-31T02:30:49.743Z,99.99
2023-10-31T02:31:49.811Z,99.99
2023-10-31T02:32:49.798Z,99.99
2023-10-31T02:33:50.493Z,99.99
2023-10-31T02:34:49.767Z,99.99
2023-10-31T02:35:49.681Z,99.99
2023-10-31T02:36:49.811Z,99.54
2023-10-31T02:37:50.186Z,99.99
2023-10-31T02:38:49.701Z,99.14
2023-10-31T02:39:52.250Z,99.34
2023-10-31T02:40:49.680Z,99.54
2023-10-31T02:41:49.695Z,99.39
2023-10-31T02:42:49.803Z,98.73
2023-10-31T02:43:49.631Z,97.30
2023-10-31T02:44:49.604Z,97.50
2023-10-31T02:45:49.626Z,97.30
2023-10-31T02:46:50.187Z,97.09
2023-10-31T02:47:49.630Z,96.59
2023-10-31T02:48:49.637Z,97.40
2023-10-31T02:49:49.649Z,98.11
2023-10-31T02:50:49.571Z,97.40
2023-10-31T02:51:49.587Z,97.61
2023-10-31T02:52:49.564Z,96.38
2023-10-31T02:53:49.572Z,96.69
2023-10-31T02:54:49.536Z,97.00
2023-10-31T02:55:49.559Z,96.79
2023-10-31T02:56:49.511Z,95.92
2023-10-31T02:57:49.490Z,96.69
2023-10-31T02:58:49.495Z,96.94
2023-10-31T02:59:49.507Z,96.33
2023-10-31T03:00:49.562Z,96.33
2023-10-31T03:01:49.608Z,96.73
2023-10-31T03:02:50.283Z,96.63
2023-10-31T03:03:49.490Z,96.12
2023-10-31T03:04:49.868Z,96.02
2023-10-31T03:05:50.217Z,96.63
2023-10-31T03:06:49.562Z,95.51
2023-10-31T03:07:49.437Z,95.72
2023-10-31T03:08:49.489Z,95.20
2023-10-31T03:09:49.598Z,95.72
2023-10-31T03:10:49.461Z,95.72
2023-10-31T03:11:49.406Z,94.90
2023-10-31T03:12:49.389Z,95.00
2023-10-31T03:13:49.410Z,95.51
2023-10-31T03:14:49.367Z,96.17
2023-10-31T03:15:49.458Z,96.53
2023-10-31T03:16:50.351Z,96.78
2023-10-31T03:17:50.023Z,96.78
2023-10-31T03:18:49.380Z,97.08
2023-10-31T03:19:49.401Z,96.78
2023-10-31T03:20:49.388Z,97.19
2023-10-31T03:21:49.389Z,97.80
2023-10-31T03:22:49.435Z,97.60
2023-10-31T03:23:49.300Z,98.00
2023-10-31T03:24:49.276Z,98.86
2023-10-31T03:25:49.354Z,98.97
2023-10-31T03:26:49.282Z,99.38
2023-10-31T03:27:50.272Z,98.97
2023-10-31T03:28:49.321Z,99.58
2023-10-31T03:29:49.257Z,99.33
2023-10-31T03:30:50.758Z,99.33
2023-10-31T03:31:49.316Z,98.66
2023-10-31T03:32:49.224Z,98.93
2023-10-31T03:33:49.226Z,98.77
2023-10-31T03:34:50.235Z,98.72
2023-10-31T03:35:49.398Z,98.61
2023-10-31T03:36:50.237Z,98.21
2023-10-31T03:37:50.254Z,97.90
2023-10-31T03:38:49.259Z,98.46
2023-10-31T03:39:50.051Z,98.61
2023-10-31T03:40:49.219Z,98.05
2023-10-31T03:41:49.151Z,98.21
2023-10-31T03:42:49.147Z,97.80
2023-10-31T03:43:49.187Z,98.11
2023-10-31T03:44:49.185Z,98.36
2023-10-31T03:45:49.782Z,98.56
2023-10-31T03:46:49.130Z,97.44
2023-10-31T03:47:49.183Z,97.54
2023-10-31T04:03:59.901Z,97.03
2023-10-31T04:04:59.916Z,97.85
2023-10-31T04:06:01.036Z,97.58
2023-10-31T04:07:01.582Z,97.58
2023-10-31T04:08:01.108Z,97.28
2023-10-31T04:09:01.003Z,96.67
2023-10-31T04:10:00.993Z,96.72
2023-10-31T04:11:01.021Z,96.83
2023-10-31T04:12:01.016Z,97.64
2023-10-31T04:13:00.991Z,96.83
2023-10-31T04:14:00.966Z,97.13
2023-10-31T04:15:00.973Z,97.13
2023-10-31T04:16:00.971Z,96.92
2023-10-31T04:17:01.022Z,96.72
2023-10-31T04:18:00.979Z,97.03
2023-10-31T04:19:00.923Z,97.03
2023-10-31T04:20:00.976Z,96.72
2023-10-31T04:21:01.646Z,97.44
2023-10-31T04:22:00.949Z,97.24
2023-10-31T04:23:00.950Z,97.33
2023-10-31T04:24:00.916Z,97.13
2023-10-31T04:25:02.470Z,97.44
2023-10-31T04:26:01.596Z,97.85
2023-10-31T04:27:00.883Z,97.95
2023-10-31T04:28:00.841Z,97.85
2023-10-31T04:29:00.905Z,98.46
2023-10-31T04:30:00.880Z,98.81
2023-10-31T04:31:00.892Z,99.02
2023-10-31T04:32:00.924Z,98.71
2023-10-31T04:33:01.527Z,98.61
2023-10-31T04:34:00.830Z,98.50
2023-10-31T04:35:00.870Z,98.77
2023-10-31T04:36:00.782Z,98.91
2023-10-31T04:37:01.873Z,98.50
2023-10-31T04:38:00.837Z,98.91
2023-10-31T04:39:00.761Z,98.81
2023-10-31T04:40:00.788Z,99.22
2023-10-31T04:41:00.750Z,99.22
2023-10-31T04:42:00.742Z,99.43
2023-10-31T04:43:00.796Z,99.43
2023-10-31T04:44:00.763Z,99.43
2023-10-31T04:45:00.818Z,98.91
2023-10-31T04:46:00.729Z,98.91
2023-10-31T04:47:00.847Z,98.50
2023-10-31T04:48:00.879Z,98.10
2023-10-31T04:49:00.710Z,98.10
2023-10-31T04:50:00.769Z,98.30
2023-10-31T04:51:00.682Z,98.40
2023-10-31T04:52:00.680Z,98.14
2023-10-31T04:53:00.685Z,97.89
2023-10-31T04:54:00.672Z,97.79
2023-10-31T04:55:00.710Z,97.69
2023-10-31T04:56:00.674Z,98.40
2023-10-31T04:57:00.668Z,97.99
2023-10-31T04:58:00.631Z,98.04
2023-10-31T04:59:01.233Z,98.45
2023-10-31T05:00:00.734Z,98.55
2023-10-31T05:01:00.606Z,98.65
2023-10-31T05:02:00.745Z,98.45
2023-10-31T05:03:00.627Z,98.96
2023-10-31T05:04:10.766Z,98.86
2023-10-31T05:05:02.698Z,98.65
2023-10-31T05:06:01.098Z,99.06
2023-10-31T05:07:00.579Z,99.06
2023-10-31T05:08:00.595Z,99.57
2023-10-31T05:09:00.551Z,99.68
2023-10-31T05:10:00.579Z,99.99
2023-10-31T05:11:00.605Z,99.78
2023-10-31T05:12:01.562Z,99.99
2023-10-31T05:13:00.504Z,99.99
2023-10-31T05:14:00.596Z,99.99
2023-10-31T05:15:00.499Z,99.99
2023-10-31T05:16:00.500Z,99.99
2023-10-31T05:17:00.517Z,99.99
2023-10-31T05:18:00.545Z,99.99
2023-10-31T05:19:00.481Z,99.99
2023-10-31T05:20:01.150Z,99.99
2023-10-31T05:21:01.489Z,99.99
2023-10-31T05:22:00.456Z,99.99
2023-10-31T05:23:01.042Z,99.99
2023-10-31T05:24:00.438Z,99.99
2023-10-31T05:25:00.421Z,99.99
2023-10-31T05:26:00.454Z,99.99
2023-10-31T05:27:00.413Z,99.99
2023-10-31T05:28:00.398Z,99.99
2023-10-31T05:29:00.411Z,99.99
2023-10-31T05:30:00.438Z,99.99
2023-10-31T05:31:00.365Z,99.99
2023-10-31T05:32:00.365Z,99.99
2023-10-31T05:33:00.422Z,99.37
2023-10-31T05:34:00.374Z,99.78
2023-10-31T05:35:00.830Z,99.27
2023-10-31T05:36:01.317Z,98.04
2023-10-31T05:37:00.345Z,97.83
2023-10-31T05:38:01.158Z,97.79
2023-10-31T05:39:00.299Z,97.74
2023-10-31T05:40:00.292Z,97.74
2023-10-31T05:41:00.316Z,98.04
2023-10-31T05:42:00.289Z,97.63
2023-10-31T05:43:00.282Z,97.78
2023-10-31T05:44:00.330Z,97.74
2023-10-31T05:45:00.276Z,97.63
2023-10-31T05:46:01.388Z,98.29
2023-10-31T05:47:00.289Z,98.14
2023-10-31T05:48:00.360Z,98.39
2023-10-31T05:49:01.131Z,98.96
2023-10-31T05:50:03.330Z,98.70
2023-10-31T05:51:00.231Z,98.75
2023-10-31T05:52:00.208Z,99.06
2023-10-31T05:53:01.050Z,99.11
2023-10-31T05:54:00.302Z,98.90
2023-10-31T05:55:00.942Z,99.41
2023-10-31T05:56:00.325Z,99.37
2023-10-31T05:57:01.150Z,99.27
2023-10-31T05:58:00.250Z,99.47
2023-10-31T05:59:00.289Z,99.41
2023-10-31T06:00:00.246Z,99.72
2023-10-31T06:01:01.150Z,99.11
2023-10-31T06:02:00.213Z,99.11
2023-10-31T06:03:00.240Z,99.57
2023-10-31T06:04:00.168Z,99.37
2023-10-31T06:05:01.282Z,99.72
2023-10-31T06:06:00.159Z,99.62
2023-10-31T06:07:00.104Z,99.93
2023-10-31T06:08:01.206Z,99.99
2023-10-31T06:09:00.651Z,99.99
2023-10-31T06:10:00.133Z,99.99
2023-10-31T06:11:01.045Z,99.99
2023-10-31T06:12:01.934Z,99.99
2023-10-31T06:13:00.082Z,99.99
2023-10-31T06:14:00.123Z,99.99
2023-10-31T06:15:00.071Z,99.99
2023-10-31T06:16:01.755Z,99.99
2023-10-31T06:17:00.062Z,99.99
2023-10-31T06:18:00.694Z,99.99
2023-10-31T06:19:00.651Z,99.99
2023-10-31T06:19:59.988Z,99.99
2023-10-31T06:20:59.965Z,99.99
2023-10-31T06:21:59.982Z,99.99
2023-10-31T06:23:00.025Z,99.99
2023-10-31T06:23:59.980Z,99.99
2023-10-31T06:25:00.018Z,99.99
2023-10-31T06:25:59.990Z,99.99
2023-10-31T06:26:59.924Z,99.99
2023-10-31T06:27:59.926Z,99.99
2023-10-31T06:29:18.210Z,99.99
2023-10-31T06:30:11.929Z,99.99
2023-10-31T06:31:01.951Z,99.99
2023-10-31T06:31:59.983Z,99.99
2023-10-31T06:33:00.498Z,99.99
2023-10-31T06:33:59.878Z,99.99
2023-10-31T06:34:59.945Z,99.99
2023-10-31T06:35:59.879Z,99.99
2023-10-31T06:37:00.480Z,99.99
2023-10-31T06:38:00.462Z,99.99
2023-10-31T06:38:59.829Z,99.99
2023-10-31T06:39:59.865Z,99.93
2023-10-31T06:41:02.273Z,99.72
2023-10-31T06:42:00.527Z,99.99
2023-10-31T06:43:00.055Z,99.93
2023-10-31T06:43:59.956Z,99.99
2023-10-31T06:44:59.811Z,99.87
2023-10-31T06:45:59.845Z,99.99
2023-10-31T06:47:00.578Z,99.87
2023-10-31T06:47:59.857Z,99.99
2023-10-31T06:48:59.774Z,99.99
2023-10-31T06:49:59.818Z,99.99
2023-10-31T06:50:59.747Z,99.87
2023-10-31T06:51:59.798Z,99.99
2023-10-31T06:52:59.793Z,99.87
2023-10-31T06:53:59.732Z,99.62
2023-10-31T06:54:59.740Z,99.62
2023-10-31T06:56:00.710Z,99.93
2023-10-31T06:56:59.715Z,99.66
2023-10-31T06:57:59.724Z,99.15
2023-10-31T06:58:59.698Z,99.05
2023-10-31T06:59:59.698Z,99.15
2023-10-31T07:00:59.722Z,99.66
2023-10-31T07:01:59.769Z,99.56
2023-10-31T07:02:59.685Z,99.46
2023-10-31T07:04:00.727Z,99.66
2023-10-31T07:04:59.751Z,99.46
2023-10-31T07:05:59.628Z,99.77
2023-10-31T07:06:59.637Z,99.77
2023-10-31T07:07:59.653Z,99.46
2023-10-31T07:08:59.636Z,99.05
2023-10-31T07:09:59.641Z,98.70
2023-10-31T07:11:02.218Z,98.54
2023-10-31T07:12:00.578Z,99.11
2023-10-31T07:12:59.590Z,99.21
2023-10-31T07:13:59.604Z,98.70
2023-10-31T07:14:59.733Z,98.80
2023-10-31T07:15:59.597Z,98.19
2023-10-31T07:16:59.597Z,97.57
2023-10-31T07:17:59.584Z,98.19
2023-10-31T07:18:59.580Z,98.29
2023-10-31T07:19:59.625Z,98.29
2023-10-31T07:20:59.505Z,98.49
2023-10-31T07:21:59.505Z,99.01
2023-10-31T07:22:59.566Z,99.01
2023-10-31T07:23:59.506Z,98.70
2023-10-31T07:24:59.520Z,99.01
2023-10-31T07:25:59.516Z,99.01
2023-10-31T07:26:59.496Z,98.70
2023-10-31T07:27:59.508Z,98.49
2023-10-31T07:28:59.491Z,99.01
2023-10-31T07:29:59.487Z,99.11
2023-10-31T07:30:59.425Z,98.60
2023-10-31T07:31:59.547Z,98.60
2023-10-31T07:32:59.508Z,98.29
2023-10-31T07:33:59.456Z,98.49
2023-10-31T07:34:59.425Z,98.90
2023-10-31T07:35:59.396Z,98.39
2023-10-31T07:36:59.392Z,98.60
2023-10-31T07:37:59.448Z,98.90
2023-10-31T07:38:59.402Z,98.60
2023-10-31T07:39:59.370Z,98.90
2023-10-31T07:40:59.429Z,98.80
2023-10-31T07:41:59.386Z,98.70
2023-10-31T07:42:59.353Z,98.70
2023-10-31T07:43:59.372Z,98.39
2023-10-31T07:44:59.357Z,98.35
2023-10-31T07:45:59.324Z,98.35
2023-10-31T07:46:59.389Z,98.04
2023-10-31T07:48:00.044Z,98.24
2023-10-31T07:48:59.300Z,98.24
2023-10-31T07:49:59.343Z,98.75
2023-10-31T07:50:59.292Z,98.45
2023-10-31T07:52:00.212Z,98.55
2023-10-31T07:53:00.171Z,98.45
2023-10-31T07:53:59.277Z,98.35
2023-10-31T07:54:59.248Z,97.94
2023-10-31T07:55:59.293Z,98.14
2023-10-31T07:56:59.229Z,97.53
2023-10-31T07:57:59.298Z,97.63
2023-10-31T07:59:00.161Z,97.38
2023-10-31T07:59:59.218Z,97.12
2023-10-31T08:00:59.234Z,96.77
2023-10-31T08:01:59.255Z,97.02
2023-10-31T08:02:59.297Z,97.17
2023-10-31T08:04:00.715Z,96.20
2023-10-31T08:04:59.211Z,95.44
2023-10-31T08:05:59.207Z,96.05
2023-10-31T08:06:59.164Z,96.00
2023-10-31T08:07:59.170Z,95.44
2023-10-31T08:08:59.146Z,95.64
2023-10-31T08:09:59.139Z,95.23
2023-10-31T08:10:59.190Z,94.27
2023-10-31T08:11:59.116Z,93.70
2023-10-31T08:12:59.164Z,94.07
2023-10-31T08:13:59.147Z,94.42
2023-10-31T08:14:59.314Z,93.70
2023-10-31T08:15:59.116Z,94.73
2023-10-31T08:16:59.113Z,94.52
2023-10-31T08:17:59.074Z,94.21
2023-10-31T08:18:59.044Z,94.82
2023-10-31T08:19:59.056Z,94.73
2023-10-31T08:20:59.044Z,93.70
2023-10-31T08:21:59.681Z,94.52
2023-10-31T08:23:00.052Z,94.62
2023-10-31T08:23:59.003Z,94.52
2023-10-31T08:25:00.009Z,94.73
2023-10-31T08:25:59.049Z,94.32
2023-10-31T08:26:59.012Z,94.62
2023-10-31T08:27:58.982Z,94.93
2023-10-31T08:28:58.986Z,96.05
2023-10-31T08:29:58.966Z,96.36
2023-10-31T08:30:58.980Z,97.17
2023-10-31T08:31:59.055Z,96.58
2023-10-31T08:32:58.978Z,95.81
2023-10-31T08:33:58.983Z,94.45
2023-10-31T08:34:59.053Z,94.65
2023-10-31T08:35:58.958Z,94.85
2023-10-31T08:36:58.916Z,94.90
2023-10-31T08:37:59.642Z,95.10
2023-10-31T08:38:58.911Z,95.72
2023-10-31T08:39:58.929Z,95.41
2023-10-31T08:40:59.062Z,95.47
2023-10-31T08:41:58.889Z,94.90
2023-10-31T08:42:58.944Z,95.20
2023-10-31T08:43:58.950Z,95.20
2023-10-31T08:44:58.875Z,95.76
2023-10-31T08:45:58.841Z,96.17
2023-10-31T08:46:58.928Z,96.58
2023-10-31T08:47:58.882Z,96.68
2023-10-31T08:48:58.822Z,96.47
2023-10-31T08:49:58.894Z,96.33
2023-10-31T08:50:58.846Z,96.53
2023-10-31T08:51:58.804Z,95.92
2023-10-31T08:53:00.236Z,95.04
2023-10-31T08:53:58.814Z,94.94
2023-10-31T08:54:58.812Z,95.61
2023-10-31T08:55:58.828Z,95.51
2023-10-31T08:56:58.734Z,96.02
2023-10-31T08:57:58.750Z,95.72
2023-10-31T08:58:58.740Z,95.31
2023-10-31T08:59:58.740Z,95.00
2023-10-31T09:00:58.829Z,95.31
2023-10-31T09:01:58.720Z,95.61
2023-10-31T09:02:59.674Z,96.12
2023-10-31T09:03:58.786Z,94.79
2023-10-31T09:04:58.798Z,94.29
2023-10-31T09:05:58.706Z,94.18
2023-10-31T09:06:58.790Z,94.34
2023-10-31T09:07:58.730Z,93.67
2023-10-31T09:08:58.685Z,93.57
2023-10-31T09:09:58.646Z,94.24
2023-10-31T09:10:58.733Z,92.57
2023-10-31T09:11:58.664Z,92.27
2023-10-31T09:12:59.258Z,90.24
2023-10-31T09:13:58.670Z,89.99
2023-10-31T09:14:58.639Z,89.89
2023-10-31T09:15:59.698Z,89.38
2023-10-31T09:16:58.670Z,89.12
2023-10-31T09:17:58.632Z,90.20
2023-10-31T09:18:58.621Z,89.79
2023-10-31T09:19:58.607Z,88.48
2023-10-31T09:20:58.595Z,86.21
2023-10-31T09:21:58.582Z,87.02
2023-10-31T09:22:58.641Z,86.61
2023-10-31T09:23:58.561Z,87.02
2023-10-31T09:24:58.608Z,87.06
2023-10-31T09:25:58.698Z,87.53
2023-10-31T09:26:58.550Z,86.68
2023-10-31T09:27:58.553Z,86.47
2023-10-31T09:28:58.526Z,85.70
2023-10-31T09:29:58.542Z,85.96
2023-10-31T09:30:58.532Z,85.86
2023-10-31T09:31:58.550Z,85.96
2023-10-31T09:32:58.646Z,86.07
2023-10-31T09:33:58.602Z,86.21
2023-10-31T09:34:58.539Z,86.37
2023-10-31T09:35:58.505Z,85.86
2023-10-31T09:36:58.500Z,86.47
2023-10-31T09:37:58.466Z,85.88
2023-10-31T09:38:58.453Z,86.94
2023-10-31T09:39:58.450Z,88.10
2023-10-31T09:40:58.456Z,88.31
2023-10-31T09:41:58.412Z,86.69
2023-10-31T09:42:58.407Z,87.26
2023-10-31T09:43:58.415Z,86.04
2023-10-31T09:44:58.409Z,86.31
2023-10-31T09:45:58.458Z,86.21
2023-10-31T09:46:58.431Z,84.99
2023-10-31T09:47:59.414Z,85.80
2023-10-31T09:48:58.387Z,86.00
2023-10-31T09:49:58.400Z,86.07
2023-10-31T09:50:58.357Z,85.92
2023-10-31T09:51:58.366Z,85.80
2023-10-31T09:52:58.385Z,85.76
2023-10-31T09:53:58.408Z,84.88
2023-10-31T09:54:58.370Z,86.07
2023-10-31T09:55:59.003Z,85.90
2023-10-31T09:56:58.324Z,85.90
2023-10-31T09:57:58.286Z,85.90
2023-10-31T09:58:58.376Z,87.10
2023-10-31T09:59:58.319Z,87.20
2023-10-31T10:00:58.276Z,87.81
2023-10-31T10:01:58.481Z,87.00
2023-10-31T10:02:58.317Z,87.61
2023-10-31T10:03:58.362Z,87.61
2023-10-31T10:04:58.313Z,88.06
2023-10-31T10:05:59.260Z,87.90
2023-10-31T10:06:58.210Z,89.22
2023-10-31T10:07:58.260Z,89.28
2023-10-31T10:08:58.231Z,88.67
2023-10-31T10:09:58.187Z,87.96
2023-10-31T10:10:58.214Z,85.94
2023-10-31T10:11:58.184Z,85.74
2023-10-31T10:12:58.167Z,85.39
2023-10-31T10:13:58.182Z,85.86
2023-10-31T10:14:58.169Z,83.48
2023-10-31T10:15:58.210Z,83.04
2023-10-31T10:16:58.213Z,82.29
2023-10-31T10:17:58.160Z,81.95
2023-10-31T10:18:58.130Z,81.32
2023-10-31T10:19:58.180Z,80.25
2023-10-31T10:20:58.146Z,80.05
2023-10-31T10:21:58.098Z,79.17
2023-10-31T10:22:58.151Z,78.96
2023-10-31T10:23:58.113Z,79.71
2023-10-31T10:24:58.130Z,79.13
2023-10-31T10:25:58.149Z,80.73
2023-10-31T10:26:58.062Z,82.29
2023-10-31T10:27:58.052Z,83.45
2023-10-31T10:28:58.064Z,83.69
2023-10-31T10:29:58.070Z,83.89
2023-10-31T10:30:58.067Z,83.93
2023-10-31T10:31:58.056Z,84.58
2023-10-31T10:32:58.043Z,85.39
2023-10-31T10:33:58.682Z,85.90
2023-10-31T10:35:31.053Z,86.00
2023-10-31T10:36:30.628Z,85.29
2023-10-31T10:37:29.940Z,85.94
2023-10-31T10:38:30.382Z,85.74
2023-10-31T10:38:57.955Z,86.35
2023-10-31T10:39:58.869Z,85.74
2023-10-31T10:40:58.013Z,85.94
2023-10-31T10:41:57.933Z,86.49
2023-10-31T10:42:57.952Z,86.80
2023-10-31T10:43:57.928Z,87.71
2023-10-31T10:44:58.628Z,87.81
2023-10-31T10:45:59.036Z,87.71
2023-10-31T10:46:57.995Z,88.06
2023-10-31T10:47:58.007Z,89.07
2023-10-31T10:48:58.827Z,88.36
2023-10-31T10:49:58.877Z,87.96
2023-10-31T10:50:57.899Z,88.16
2023-10-31T10:51:58.634Z,88.40
2023-10-31T10:52:57.928Z,88.92
2023-10-31T10:53:57.944Z,89.53
2023-10-31T10:54:57.868Z,89.32
2023-10-31T10:55:58.294Z,88.71
2023-10-31T10:56:57.863Z,88.51
2023-10-31T10:57:57.939Z,88.20
2023-10-31T10:58:58.688Z,88.36
2023-10-31T10:59:57.864Z,88.46
2023-10-31T11:00:57.856Z,89.42
2023-10-31T11:01:57.834Z,89.22
2023-10-31T11:02:58.013Z,89.73
2023-10-31T11:03:58.383Z,90.03
2023-10-31T11:04:57.806Z,90.28
2023-10-31T11:05:57.796Z,90.64
2023-10-31T11:06:57.775Z,90.44
2023-10-31T11:07:59.885Z,90.03
2023-10-31T11:09:00.311Z,90.40
2023-10-31T11:09:57.791Z,89.73
2023-10-31T11:10:58.006Z,90.08
2023-10-31T11:11:57.905Z,90.28
2023-10-31T11:12:57.865Z,90.99
2023-10-31T11:13:57.763Z,91.16
2023-10-31T11:14:57.746Z,91.40
2023-10-31T11:15:57.735Z,91.71
2023-10-31T11:16:57.707Z,91.14
2023-10-31T11:17:57.683Z,92.26
2023-10-31T11:18:57.639Z,91.96
2023-10-31T11:19:57.842Z,92.05
2023-10-31T11:20:57.657Z,92.52
2023-10-31T11:21:57.656Z,92.42
2023-10-31T11:22:58.391Z,91.55
2023-10-31T11:23:57.631Z,91.96
2023-10-31T11:24:57.691Z,91.75
2023-10-31T11:25:58.278Z,92.16
2023-10-31T11:26:57.710Z,92.91
2023-10-31T11:27:58.530Z,93.43
2023-10-31T11:28:57.780Z,93.43
2023-10-31T11:29:58.418Z,93.32
2023-10-31T11:30:57.589Z,93.43
2023-10-31T11:31:57.601Z,93.43
2023-10-31T11:32:57.587Z,93.63
2023-10-31T11:33:57.546Z,94.70
2023-10-31T11:34:57.640Z,94.65
2023-10-31T11:35:57.596Z,94.08
2023-10-31T11:36:58.335Z,94.49
2023-10-31T11:37:58.366Z,94.38
2023-10-31T11:38:57.607Z,94.79
2023-10-31T11:39:57.661Z,95.10
2023-10-31T11:40:57.890Z,94.29
2023-10-31T11:41:57.618Z,94.38
2023-10-31T11:42:57.503Z,94.08
2023-10-31T11:43:57.524Z,94.18
2023-10-31T11:44:57.451Z,94.38
2023-10-31T11:45:57.518Z,93.63
2023-10-31T11:46:57.441Z,93.37
2023-10-31T11:47:58.285Z,92.50
2023-10-31T11:48:58.233Z,92.50
2023-10-31T11:49:58.382Z,92.91
2023-10-31T11:50:57.730Z,92.81
2023-10-31T11:51:58.392Z,91.85
2023-10-31T11:52:57.484Z,91.89
2023-10-31T11:53:57.400Z,91.61
2023-10-31T11:54:57.387Z,91.30
2023-10-31T11:55:57.413Z,90.99
2023-10-31T11:56:57.347Z,90.34
2023-10-31T11:57:57.349Z,90.24
2023-10-31T11:58:58.233Z,90.14
2023-10-31T12:00:29.777Z,90.09
2023-10-31T12:00:57.422Z,89.38
2023-10-31T12:01:57.366Z,89.38
2023-10-31T12:02:57.385Z,88.51
2023-10-31T12:03:57.458Z,88.06
2023-10-31T12:04:57.307Z,88.16
2023-10-31T12:05:57.250Z,88.46
2023-10-31T12:06:57.257Z,89.18
2023-10-31T12:07:57.940Z,88.77
2023-10-31T12:08:57.260Z,88.57
2023-10-31T12:09:57.250Z,88.51
2023-10-31T12:10:57.275Z,88.06
2023-10-31T12:11:57.213Z,88.16
2023-10-31T12:12:57.231Z,88.40
2023-10-31T12:13:57.251Z,89.42
2023-10-31T12:14:57.198Z,89.22
2023-10-31T12:15:57.230Z,89.22
2023-10-31T12:16:57.205Z,89.12
2023-10-31T12:17:57.224Z,89.01
2023-10-31T12:18:57.169Z,89.06
2023-10-31T12:19:57.185Z,89.47
2023-10-31T12:20:57.150Z,89.77
2023-10-31T12:21:57.159Z,89.47
2023-10-31T12:22:57.189Z,89.36
2023-10-31T12:24:29.707Z,89.47
2023-10-31T12:24:57.126Z,89.12
2023-10-31T12:25:57.926Z,89.36
2023-10-31T12:26:57.096Z,89.26
2023-10-31T12:27:57.092Z,89.10
2023-10-31T12:28:57.769Z,88.65
2023-10-31T12:29:57.099Z,89.47
2023-10-31T12:30:58.130Z,89.36
2023-10-31T12:31:57.153Z,88.71
2023-10-31T12:32:57.170Z,88.06
2023-10-31T12:33:57.903Z,88.31
2023-10-31T12:34:57.106Z,88.36
2023-10-31T12:35:57.086Z,88.46
2023-10-31T12:36:57.808Z,87.96
2023-10-31T12:37:57.108Z,87.45
2023-10-31T12:38:57.042Z,87.75
2023-10-31T12:39:57.110Z,87.65
2023-10-31T12:40:57.112Z,87.65
2023-10-31T12:41:57.005Z,87.35
2023-10-31T12:42:57.014Z,87.65
2023-10-31T12:43:57.123Z,87.65
2023-10-31T12:44:57.898Z,87.45
2023-10-31T12:45:58.157Z,87.55
2023-10-31T12:46:57.181Z,87.00
2023-10-31T12:47:57.027Z,87.30
2023-10-31T12:48:56.968Z,86.90
2023-10-31T12:49:56.990Z,86.59
2023-10-31T12:50:56.970Z,86.59
2023-10-31T12:51:57.004Z,87.00
2023-10-31T12:52:58.462Z,86.76
2023-10-31T12:53:56.938Z,86.65
2023-10-31T12:54:56.871Z,86.61
2023-10-31T12:55:56.905Z,86.71
2023-10-31T12:56:56.926Z,86.51
2023-10-31T12:57:56.919Z,85.86
2023-10-31T12:58:56.866Z,85.15
2023-10-31T12:59:56.856Z,84.99
2023-10-31T13:00:56.848Z,85.19
2023-10-31T13:01:57.495Z,84.68
2023-10-31T13:02:57.051Z,84.99
2023-10-31T13:03:56.916Z,84.99
2023-10-31T13:04:56.862Z,85.29
2023-10-31T13:05:56.936Z,85.96
2023-10-31T13:06:56.834Z,85.05
2023-10-31T13:07:57.006Z,85.35
2023-10-31T13:08:56.829Z,84.95
2023-10-31T13:09:56.862Z,84.74
2023-10-31T13:10:56.860Z,84.23
2023-10-31T13:11:56.841Z,84.30
2023-10-31T13:12:56.774Z,83.73
2023-10-31T13:13:57.785Z,83.32
2023-10-31T13:14:56.805Z,83.32
2023-10-31T13:15:56.781Z,84.34
2023-10-31T13:16:56.781Z,83.93
2023-10-31T13:17:56.741Z,84.48
2023-10-31T13:18:56.726Z,84.95
2023-10-31T13:19:56.780Z,84.74
2023-10-31T13:20:56.694Z,83.97
2023-10-31T13:21:57.507Z,85.19
2023-10-31T13:22:56.712Z,85.13
2023-10-31T13:23:56.640Z,85.84